WetterOnline ( https://www.wetteronline.de )

Wetter aktuell München

Aktuelles Wetter: München/Stadt (535m)

6-stündlich | Neueste Meldungen
Ortszeit Temperatur Wetter
Di, 17.05. 20:00 20.5° C leicht bewölkt
Di, 17.05. 14:00 21.0° C wolkig
Di, 17.05. 8:00 14.2° C leicht bewölkt
Di, 17.05. 2:00 14.2° C bedeckt
Mo, 16.05. 20:00 17.3° C bewölkt
Mo, 16.05. 14:00 19.3° C bewölkt
Mo, 16.05. 8:00 16.6° C wolkig
Mo, 16.05. 2:00 13.6° C wolkig
Ortszeit Temperatur Wetter
Di, 17.05. 20:00 20.5° C leicht bewölkt
Di, 17.05. 19:50 20.5° C wolkig
Di, 17.05. 19:40 21.1° C bewölkt
Di, 17.05. 19:30 21.3° C bewölkt
Di, 17.05. 19:20 21.3° C bewölkt
Di, 17.05. 19:10 21.7° C bewölkt
Di, 17.05. 19:00 21.8° C bewölkt
Di, 17.05. 18:30 21.8° C wolkig
Di, 17.05. 18:00 21.8° C leicht bewölkt
Di, 17.05. 17:30 22.3° C wolkig
Di, 17.05. 17:00 22.8° C leicht bewölkt
Ortszeit Relative Feuchte Sichtweite
Di, 17.05. 20:00 47% 60 km
Di, 17.05. 14:00 49% 50 km
Di, 17.05. 8:00 84% 40 km
Di, 17.05. 2:00 87% 45 km
Mo, 16.05. 20:00 83% 55 km
Mo, 16.05. 14:00 63% >70 km
Mo, 16.05. 8:00 66% 50 km
Mo, 16.05. 2:00 76% 55 km
Ortszeit Relative Feuchte Sichtweite
Di, 17.05. 20:00 47% 60 km
Di, 17.05. 19:50 47% -
Di, 17.05. 19:40 44% -
Di, 17.05. 19:30 44% 60 km
Di, 17.05. 19:20 44% -
Di, 17.05. 19:10 44% -
Di, 17.05. 19:00 45% 50 km
Di, 17.05. 18:30 45% 65 km
Di, 17.05. 18:00 45% 60 km
Di, 17.05. 17:30 44% 45 km
Di, 17.05. 17:00 44% 65 km
Ortszeit Niederschlagsmenge Niederschlagsart
Di, 17.05. 20:00 0.0 l/m2 in 12 Std. -
Di, 17.05. 14:00 0.0 l/m2 in 6 Std. -
Di, 17.05. 8:00 0.5 l/m2 in 12 Std. -
Di, 17.05. 2:00 0.5 l/m2 in 6 Std. Regen
Mo, 16.05. 20:00 10 l/m2 in 12 Std. Regen
Mo, 16.05. 14:00 0.1 l/m2 in 6 Std. Regen
Mo, 16.05. 8:00 0.0 l/m2 in 12 Std. -
Mo, 16.05. 2:00 0.0 l/m2 in 6 Std. -
Ortszeit Niederschlagsmenge Niederschlagsart
Di, 17.05. 20:00 0.0 l/m2 in 1 Std. -
Di, 17.05. 19:50 keine Meldung -
Di, 17.05. 19:40 keine Meldung -
Di, 17.05. 19:30 0.0 l/m2 in 1 Std. -
Di, 17.05. 19:20 keine Meldung -
Di, 17.05. 19:10 keine Meldung -
Di, 17.05. 19:00 0.0 l/m2 in 1 Std. -
Di, 17.05. 18:30 0.0 l/m2 in 1 Std. -
Di, 17.05. 18:00 0.0 l/m2 in 1 Std. -
Di, 17.05. 17:30 0.0 l/m2 in 1 Std. -
Di, 17.05. 17:00 0.0 l/m2 in 1 Std. -
Ortszeit Stärke Spitze Richtung
km/h Bft. km/h Grad Sektor
Di, 17.05. 20:00 4 1 29 340° N
Di, 17.05. 14:00 11 2 25 300° NW
Di, 17.05. 8:00 7 2 17 230° SW
Di, 17.05. 2:00 11 2 29 240° SW
Mo, 16.05. 20:00 4 1 65 230° SW
Mo, 16.05. 14:00 9 2 46 210° SW
Mo, 16.05. 8:00 2 1 9 240° SW
Mo, 16.05. 2:00 4 1 14 260° W
Ortszeit Stärke Spitze Richtung
km/h Bft. km/h Grad Sektor
Di, 17.05. 20:00 4 1 22 340° N
Di, 17.05. 19:50 4 1 - 340° N
Di, 17.05. 19:40 7 2 - 350° N
Di, 17.05. 19:30 7 2 22 340° N
Di, 17.05. 19:20 7 2 - 340° N
Di, 17.05. 19:10 11 2 - 350° N
Di, 17.05. 19:00 9 2 17 340° N
Di, 17.05. 18:30 7 2 18 10° N
Di, 17.05. 18:00 9 2 24 350° N
Di, 17.05. 17:30 11 2 22 320° NW
Di, 17.05. 17:00 14 3 29 360° N
Ortszeit Untergrenze Bedeckung Gattung
total tief tief mittel hoch
Di, 17.05. 20:00 9000 m 7/8 0/8 - - -
Di, 17.05. 14:00 1440 m 7/8 3/8 - - -
Di, 17.05. 8:00 810 m 4/8 1/8 - - -
Di, 17.05. 2:00 5400 m 8/8 8/8 - - -
Mo, 16.05. 20:00 2100 m 7/8 7/8 - - -
Mo, 16.05. 14:00 2700 m 7/8 7/8 - - -
Mo, 16.05. 8:00 2400 m 7/8 2/8 - - -
Mo, 16.05. 2:00 8700 m 8/8 0/8 - - -
Ortszeit Bedeckungsgrad in Achtel und Wolkenuntergrenze
Di, 17.05. 20:00 6(9000m) 7(10500m)
Di, 17.05. 19:50 6(9000m) 7(10500m)
Di, 17.05. 19:40 7
Di, 17.05. 19:30 6(5100m) 7(9000m) 7(10500m)
Di, 17.05. 19:20 6(5100m) 7(9000m) 7(10500m)
Di, 17.05. 19:10 7
Di, 17.05. 19:00 6(5100m) 7(10500m) 7(10500m)
Di, 17.05. 18:30 2(5400m) 4(10500m) 8(10500m)
Di, 17.05. 18:00 1(1470m) 4(6000m) 8(10500m)
Di, 17.05. 17:30 8(10500m)
Di, 17.05. 17:00 3(9000m) 7(10500m)
Ortszeit Luftdruck NN (hPa) Tendenz (hPa in 3 Std.)
Di, 17.05. 20:00 1019 - 0,4
Di, 17.05. 14:00 1021 - 0,5
Di, 17.05. 8:00 1023 + 1,1
Di, 17.05. 2:00 1022 + 0,4
Mo, 16.05. 20:00 1019 + 1,4
Mo, 16.05. 14:00 1019 - 0,3
Mo, 16.05. 8:00 1017 + 0,3
Mo, 16.05. 2:00 1017 + 0,1
Ortszeit Luftdruck NN (hPa) Tendenz (hPa in 3 Std.)
Di, 17.05. 20:00 1019 - 0,4
Di, 17.05. 19:50 1019 keine Meldung
Di, 17.05. 19:40 1019 keine Meldung
Di, 17.05. 19:30 1019 - 0,7
Di, 17.05. 19:20 1019 keine Meldung
Di, 17.05. 19:10 1019 keine Meldung
Di, 17.05. 19:00 1019 - 1,1
Di, 17.05. 18:30 1019 - 1,2
Di, 17.05. 18:00 1019 - 1,0
Di, 17.05. 17:30 1019 - 1,2
Di, 17.05. 17:00 1019 - 1,2
Ortszeit Schneehöhe (cm)
Di, 17.05. 20:00 0
Di, 17.05. 14:00 0
Di, 17.05. 8:00 0
Di, 17.05. 2:00 0
Mo, 16.05. 20:00 0
Mo, 16.05. 14:00 0
Mo, 16.05. 8:00 0
Mo, 16.05. 2:00 0
Ortszeit Schneehöhe (cm)
Di, 17.05. 20:00 0
Di, 17.05. 19:50 0
Di, 17.05. 19:40 0
Di, 17.05. 19:30 0
Di, 17.05. 19:20 0
Di, 17.05. 19:10 0
Di, 17.05. 19:00 0
Di, 17.05. 18:30 0
Di, 17.05. 18:00 0
Di, 17.05. 17:30 0
Di, 17.05. 17:00 0
Link zu dieser Seite / Seite empfehlen

Das Wetter in ...